Time;durP1;ratioP1;P1;durP2;ratioP2;P2;SDS_P1;SDS_P2;PMS_P1;PMS_P2;Temp;Humidity;BMP_temperature;BMP_pressure;BME280_temperature;BME280_humidity;BME280_pressure;Samples;Min_cycle;Max_cycle;Signal;HPM_P1;HPM_P2
2021/11/19 00:01:30;;;;;;;42.20;24.15;;;2.00;98.00;;;;;;5080083;28;20028;-91
2021/11/19 00:03:56;;;;;;;37.22;24.45;;;2.00;98.00;;;;;;5081436;28;20029;-90
2021/11/19 00:06:22;;;;;;;41.78;22.73;;;2.00;97.90;;;;;;5075480;28;20035;-87
2021/11/19 00:08:50;;;;;;;40.42;23.55;;;2.00;98.00;;;;;;5078375;28;20056;-92
2021/11/19 00:11:20;;;;;;;42.92;27.52;;;2.00;98.10;;;;;;5081053;28;20024;-86
2021/11/19 00:13:50;;;;;;;39.72;24.55;;;2.10;98.10;;;;;;5083310;28;20020;-90
2021/11/19 00:16:17;;;;;;;40.63;26.38;;;2.10;98.00;;;;;;5080692;28;20031;-85
2021/11/19 00:18:44;;;;;;;39.72;22.15;;;2.10;98.00;;;;;;5078002;28;20477;-90
2021/11/19 00:21:17;;;;;;;35.10;23.30;;;2.10;98.00;;;;;;5084781;28;20037;-90
2021/11/19 00:23:45;;;;;;;40.40;23.25;;;2.20;98.00;;;;;;5088937;28;20051;-88
2021/11/19 00:26:14;;;;;;;40.53;23.85;;;2.20;97.90;;;;;;5092436;28;20477;-91
2021/11/19 00:28:41;;;;;;;31.50;22.15;;;2.20;97.90;;;;;;5092102;28;20012;-90
2021/11/19 00:31:07;;;;;;;41.63;25.40;;;2.30;97.90;;;;;;5100420;28;20047;-88
2021/11/19 00:33:39;;;;;;;36.13;20.50;;;2.20;97.90;;;;;;5081203;28;20508;-93
2021/11/19 00:36:12;;;;;;;32.97;21.05;;;2.20;97.90;;;;;;5071978;28;20036;-92
2021/11/19 00:38:39;;;;;;;32.65;20.58;;;2.20;97.90;;;;;;5073813;28;20028;-89
2021/11/19 00:41:10;;;;;;;48.47;25.15;;;2.30;97.90;;;;;;5078952;28;20051;-89
2021/11/19 00:43:36;;;;;;;34.05;22.27;;;2.20;97.90;;;;;;5098558;28;20059;-86
2021/11/19 00:46:03;;;;;;;34.80;23.77;;;2.30;97.90;;;;;;5094176;28;20044;-85
2021/11/19 00:48:32;;;;;;;35.45;22.75;;;2.30;97.90;;;;;;5069371;28;20268;-85
2021/11/19 00:51:11;;;;;;;36.28;22.90;;;2.30;97.80;;;;;;5066162;28;20048;-85
2021/11/19 00:53:39;;;;;;;36.00;22.25;;;2.30;97.90;;;;;;5077688;28;20387;-84
2021/11/19 00:56:05;;;;;;;42.13;24.92;;;2.30;97.90;;;;;;5076970;28;20145;-86
2021/11/19 00:58:33;;;;;;;33.00;21.05;;;2.40;97.80;;;;;;5072968;28;20147;-85
2021/11/19 01:01:04;;;;;;;29.65;21.08;;;2.40;97.80;;;;;;5068884;28;20036;-87
2021/11/19 01:03:30;;;;;;;36.45;22.08;;;2.40;97.80;;;;;;5075635;28;20023;-80
2021/11/19 01:05:56;;;;;;;36.70;22.38;;;2.40;97.80;;;;;;5083931;28;20038;-81
2021/11/19 01:08:27;;;;;;;34.63;20.35;;;2.50;97.60;;;;;;5084824;28;20024;-79
2021/11/19 01:10:57;;;;;;;36.20;21.88;;;2.50;97.60;;;;;;5079470;28;20033;-81
2021/11/19 01:13:23;;;;;;;36.80;24.25;;;2.40;97.60;;;;;;5074347;28;20085;-81
2021/11/19 01:15:56;;;;;;;38.92;23.38;;;2.40;97.70;;;;;;5075660;28;20055;-82
2021/11/19 01:18:28;;;;;;;30.45;20.15;;;2.40;97.80;;;;;;5076185;28;20380;-82
2021/11/19 01:21:07;;;;;;;36.10;23.95;;;2.40;97.80;;;;;;5079855;28;20024;-84
2021/11/19 01:23:34;;;;;;;37.92;20.27;;;2.40;97.80;;;;;;5091050;28;20029;-84
2021/11/19 01:26:04;;;;;;;;;;;2.40;97.80;;;;;;5075009;28;20565;-84
2021/11/19 01:28:31;;;;;;;37.58;20.88;;;2.40;97.80;;;;;;5075527;28;19914;-83
2021/11/19 01:31:11;;;;;;;36.50;22.35;;;2.40;97.80;;;;;;5075905;28;20020;-84
2021/11/19 01:33:38;;;;;;;38.95;22.27;;;2.40;97.90;;;;;;5074820;28;20034;-83
2021/11/19 01:36:04;;;;;;;34.88;21.52;;;2.40;97.90;;;;;;5074427;28;20028;-84
2021/11/19 01:38:31;;;;;;;40.20;23.13;;;2.40;97.80;;;;;;5073998;28;20028;-84
2021/11/19 01:41:01;;;;;;;36.75;20.42;;;2.40;97.60;;;;;;5075019;28;20032;-83
2021/11/19 01:43:29;;;;;;;39.05;25.30;;;2.40;97.60;;;;;;5073194;28;20049;-83
2021/11/19 01:45:59;;;;;;;33.97;21.27;;;2.40;97.60;;;;;;5075159;28;20043;-83
2021/11/19 01:48:28;;;;;;;39.42;22.00;;;2.40;97.50;;;;;;5075173;28;20021;-83
2021/11/19 01:51:29;;;;;;;36.20;20.77;;;2.50;97.50;;;;;;5074864;28;20070;-83
2021/11/19 01:54:05;;;;;;;39.60;22.60;;;2.50;97.40;;;;;;5075688;28;20016;-84
2021/11/19 01:56:31;;;;;;;33.13;20.25;;;2.40;97.40;;;;;;5075911;28;20016;-83
2021/11/19 01:59:08;;;;;;;36.90;21.73;;;2.40;97.50;;;;;;5077945;28;20040;-82
2021/11/19 02:02:02;;;;;;;35.28;22.63;;;2.50;97.60;;;;;;5077153;28;20027;-83
2021/11/19 02:04:32;;;;;;;37.33;20.67;;;2.50;97.40;;;;;;5077769;28;20108;-82
2021/11/19 02:07:21;;;;;;;34.25;22.88;;;2.50;97.50;;;;;;5077765;28;20033;-83
2021/11/19 02:10:13;;;;;;;35.03;21.05;;;2.50;97.40;;;;;;5076679;28;20058;-82
2021/11/19 02:12:57;;;;;;;36.65;23.52;;;2.50;97.40;;;;;;5075836;28;20102;-83
2021/11/19 02:15:31;;;;;;;39.05;20.30;;;2.50;97.30;;;;;;5076533;28;20071;-83
2021/11/19 02:18:04;;;;;;;37.60;22.48;;;2.50;97.20;;;;;;5075260;28;20016;-83
2021/11/19 02:20:50;;;;;;;34.30;19.17;;;2.50;97.30;;;;;;5074614;28;20091;-82
2021/11/19 02:24:11;;;;;;;35.70;20.98;;;2.50;97.40;;;;;;5074225;28;20055;-83
2021/11/19 02:26:43;;;;;;;36.38;20.08;;;2.50;97.40;;;;;;4982947;28;20129;-82
2021/11/19 02:29:10;;;;;;;37.20;21.77;;;2.50;97.40;;;;;;5067139;28;20028;-83
2021/11/19 02:31:49;;;;;;;33.10;20.55;;;2.50;97.30;;;;;;5073950;28;20434;-82
2021/11/19 02:34:15;;;;;;;34.22;19.63;;;2.50;97.40;;;;;;5075411;28;20032;-81
2021/11/19 02:36:44;;;;;;;34.72;19.10;;;2.50;97.30;;;;;;5074364;28;20104;-84
2021/11/19 02:39:15;;;;;;;35.78;21.48;;;2.50;97.30;;;;;;5072728;28;20044;-83
2021/11/19 02:41:48;;;;;;;28.88;20.25;;;2.50;97.30;;;;;;5073501;28;20070;-85
2021/11/19 02:44:18;;;;;;;29.38;18.85;;;2.50;97.30;;;;;;5074056;28;20024;-84
2021/11/19 02:46:51;;;;;;;33.03;20.65;;;2.50;97.40;;;;;;5073448;28;20028;-83
2021/11/19 02:49:18;;;;;;;33.10;19.20;;;2.50;97.20;;;;;;5072740;28;20056;-82
2021/11/19 02:51:46;;;;;;;31.73;20.10;;;2.50;97.20;;;;;;5077887;28;20047;-82
2021/11/19 02:54:15;;;;;;;32.60;20.98;;;2.60;97.20;;;;;;5089504;28;20042;-82
2021/11/19 02:56:44;;;;;;;38.63;19.55;;;2.60;97.20;;;;;;5088445;28;20032;-83
2021/11/19 02:59:10;;;;;;;31.23;18.98;;;2.50;97.10;;;;;;5083765;28;20050;-83
2021/11/19 03:05:02;;;;;;;30.23;18.80;;;2.50;97.10;;;;;;5068975;28;20124;-83
2021/11/19 03:07:28;;;;;;;36.88;20.92;;;2.50;97.20;;;;;;5072540;28;20103;-83
2021/11/19 03:10:01;;;;;;;31.30;19.52;;;2.50;97.20;;;;;;5073975;28;20476;-83
2021/11/19 03:12:29;;;;;;;29.10;17.33;;;2.60;97.20;;;;;;5065126;28;20031;-83
2021/11/19 03:14:57;;;;;;;31.10;18.55;;;2.60;97.10;;;;;;5073396;28;20059;-84
2021/11/19 03:17:24;;;;;;;31.60;20.25;;;2.60;97.20;;;;;;5073352;28;20023;-84
2021/11/19 03:19:51;;;;;;;31.27;17.67;;;2.60;97.20;;;;;;5071888;28;20028;-82
2021/11/19 03:22:24;;;;;;;34.43;19.60;;;2.60;97.10;;;;;;5079121;28;20029;-83
2021/11/19 03:24:50;;;;;;;37.33;17.80;;;2.60;97.10;;;;;;5076155;28;20269;-83
2021/11/19 03:27:16;;;;;;;27.58;15.57;;;2.50;97.20;;;;;;5073503;28;20039;-83
2021/11/19 03:29:44;;;;;;;25.23;16.70;;;2.50;97.20;;;;;;5073316;28;20023;-84
2021/11/19 03:32:14;;;;;;;36.03;17.70;;;2.50;97.20;;;;;;5073539;28;20028;-83
2021/11/19 03:34:39;;;;;;;34.08;20.23;;;2.40;97.30;;;;;;5073126;28;20028;-85
2021/11/19 03:37:06;;;;;;;27.65;17.15;;;2.40;97.30;;;;;;5073650;28;20454;-84
2021/11/19 03:39:32;;;;;;;30.67;17.85;;;2.50;97.40;;;;;;5072959;28;20017;-82
2021/11/19 03:42:00;;;;;;;32.95;17.55;;;2.50;97.40;;;;;;5073156;28;20040;-81
2021/11/19 03:44:33;;;;;;;30.98;18.20;;;2.50;97.40;;;;;;5073571;28;20025;-81
2021/11/19 03:47:08;;;;;;;32.45;17.30;;;2.50;97.70;;;;;;5072922;28;20044;-80
2021/11/19 03:49:35;;;;;;;27.08;15.25;;;2.50;97.40;;;;;;5072955;28;20016;-81
2021/11/19 03:52:15;;;;;;;22.38;14.02;;;2.50;97.30;;;;;;5072788;28;20025;-81
2021/11/19 03:54:44;;;;;;;28.77;18.05;;;2.60;97.30;;;;;;5071630;28;20029;-82
2021/11/19 03:57:12;;;;;;;26.75;18.02;;;2.60;97.30;;;;;;5072662;28;20021;-82
2021/11/19 03:59:38;;;;;;;26.95;16.95;;;2.60;97.30;;;;;;5076987;28;20048;-81
2021/11/19 04:02:05;;;;;;;29.30;18.65;;;2.70;97.20;;;;;;5077011;28;20024;-85
2021/11/19 04:04:33;;;;;;;31.65;17.35;;;2.70;97.10;;;;;;5076950;28;20482;-83
2021/11/19 04:07:00;;;;;;;27.05;18.38;;;2.80;97.20;;;;;;5076751;28;20044;-82
2021/11/19 04:09:27;;;;;;;33.45;19.95;;;2.80;97.00;;;;;;5075498;28;20020;-82
2021/11/19 04:11:55;;;;;;;31.30;20.42;;;2.80;97.00;;;;;;5076706;28;20494;-81
2021/11/19 04:14:21;;;;;;;26.05;17.58;;;2.90;96.90;;;;;;5076967;28;20070;-80
2021/11/19 04:16:51;;;;;;;32.58;18.30;;;2.90;96.70;;;;;;5076847;28;20102;-83
2021/11/19 04:19:20;;;;;;;22.88;16.00;;;2.90;96.70;;;;;;5079048;28;20028;-82
2021/11/19 04:21:47;;;;;;;27.88;17.63;;;3.00;96.70;;;;;;5077524;28;20024;-82
2021/11/19 04:24:17;;;;;;;32.20;17.90;;;3.00;96.70;;;;;;5077026;28;20024;-81
2021/11/19 04:26:44;;;;;;;26.83;17.45;;;2.90;96.60;;;;;;5078865;28;20556;-82
2021/11/19 04:29:10;;;;;;;31.45;19.30;;;2.90;96.70;;;;;;5076624;28;20024;-81
2021/11/19 04:31:36;;;;;;;28.60;16.80;;;2.90;96.80;;;;;;5076650;28;20025;-82
2021/11/19 04:34:05;;;;;;;30.52;15.90;;;3.00;96.80;;;;;;5077844;28;20024;-80
2021/11/19 04:36:32;;;;;;;26.70;16.25;;;2.90;96.80;;;;;;5077407;28;20020;-81
2021/11/19 04:38:58;;;;;;;28.38;16.33;;;3.00;96.80;;;;;;5076304;28;20024;-82
2021/11/19 04:41:25;;;;;;;28.40;19.05;;;3.00;96.70;;;;;;5076203;28;20082;-82
2021/11/19 04:43:51;;;;;;;30.98;18.63;;;3.00;97.00;;;;;;5076103;28;20383;-83
2021/11/19 04:46:17;;;;;;;29.98;16.67;;;3.00;96.70;;;;;;5076356;28;20127;-82
2021/11/19 04:48:44;;;;;;;33.78;18.00;;;3.00;96.60;;;;;;5075089;28;20025;-82
2021/11/19 04:51:17;;;;;;;30.45;17.55;;;3.00;96.70;;;;;;5076297;28;20024;-82
2021/11/19 04:53:43;;;;;;;29.77;18.42;;;3.00;96.80;;;;;;5081474;28;20100;-81
2021/11/19 04:56:09;;;;;;;31.33;18.35;;;3.00;96.70;;;;;;5088536;28;20389;-81
2021/11/19 04:58:36;;;;;;;34.35;18.33;;;3.10;96.70;;;;;;5078174;28;20024;-82
2021/11/19 05:01:10;;;;;;;31.48;16.27;;;3.00;96.60;;;;;;5076740;28;20024;-82
2021/11/19 05:03:36;;;;;;;28.08;19.08;;;3.10;96.70;;;;;;5084288;28;20541;-82
2021/11/19 05:06:02;;;;;;;28.83;16.90;;;3.00;96.70;;;;;;5086293;28;20056;-82
2021/11/19 05:08:29;;;;;;;29.67;17.33;;;3.00;96.70;;;;;;5083067;28;20016;-82
2021/11/19 05:10:57;;;;;;;33.50;18.98;;;3.00;96.70;;;;;;5081238;28;20035;-82
2021/11/19 05:13:26;;;;;;;29.58;18.30;;;3.10;96.70;;;;;;5078333;28;20021;-82
2021/11/19 05:15:53;;;;;;;30.52;16.70;;;3.10;96.70;;;;;;5076306;28;20020;-83
2021/11/19 05:18:23;;;;;;;27.17;14.85;;;3.10;96.60;;;;;;5076520;28;20383;-82
2021/11/19 05:20:50;;;;;;;29.20;16.60;;;3.10;96.70;;;;;;5079182;28;20024;-83
2021/11/19 05:23:17;;;;;;;25.95;16.42;;;3.10;96.80;;;;;;5075417;28;20020;-83
2021/11/19 05:25:44;;;;;;;25.35;14.02;;;3.10;96.70;;;;;;5075677;28;20032;-83
2021/11/19 05:28:12;;;;;;;28.67;15.88;;;3.10;96.70;;;;;;5075673;28;20427;-84
2021/11/19 05:30:39;;;;;;;33.47;19.20;;;3.10;96.80;;;;;;5074636;28;20028;-84
2021/11/19 05:33:07;;;;;;;26.67;15.88;;;3.10;96.90;;;;;;5075207;28;20020;-83
2021/11/19 05:35:33;;;;;;;29.80;17.92;;;3.00;96.90;;;;;;5074992;28;20107;-82
2021/11/19 05:38:00;;;;;;;27.15;17.50;;;3.10;97.00;;;;;;5075367;28;20016;-82
2021/11/19 05:40:27;;;;;;;28.25;16.15;;;3.10;97.10;;;;;;5075554;28;20024;-83
2021/11/19 05:42:54;;;;;;;32.55;16.98;;;3.10;97.10;;;;;;5075502;28;20498;-84
2021/11/19 05:45:21;;;;;;;;;;;3.10;97.00;;;;;;5076077;28;20535;-84
2021/11/19 05:47:50;;;;;;;26.58;14.68;;;3.10;97.00;;;;;;5074247;28;19977;-84
2021/11/19 05:50:19;;;;;;;26.83;15.88;;;3.10;97.00;;;;;;5074392;28;20400;-82
2021/11/19 05:52:45;;;;;;;30.95;18.92;;;3.20;97.10;;;;;;5074709;28;20016;-85
2021/11/19 05:55:14;;;;;;;28.75;16.33;;;3.20;97.10;;;;;;5075526;28;20031;-83
2021/11/19 05:57:40;;;;;;;31.73;16.73;;;3.20;97.20;;;;;;5075853;28;20071;-84
2021/11/19 06:00:15;;;;;;;31.30;17.98;;;3.20;97.10;;;;;;5075250;28;20039;-85
2021/11/19 06:02:41;;;;;;;30.35;17.90;;;3.20;97.20;;;;;;5076050;28;20024;-85
2021/11/19 06:05:08;;;;;;;29.80;17.33;;;3.30;97.20;;;;;;5074824;28;20035;-84
2021/11/19 06:07:34;;;;;;;29.45;17.30;;;3.30;97.20;;;;;;5074880;28;20101;-83
2021/11/19 06:10:01;;;;;;;27.75;17.02;;;3.30;97.10;;;;;;5074729;28;20120;-85
2021/11/19 06:12:32;;;;;;;30.02;17.63;;;3.30;97.10;;;;;;5076308;28;20021;-83
2021/11/19 06:15:03;;;;;;;32.55;17.90;;;3.40;97.00;;;;;;5078613;28;20092;-83
2021/11/19 06:17:33;;;;;;;33.53;16.55;;;3.40;97.00;;;;;;5055275;28;20108;-83
2021/11/19 06:20:05;;;;;;;24.60;15.93;;;3.40;96.90;;;;;;5054575;28;20037;-83
2021/11/19 06:22:38;;;;;;;28.40;17.00;;;3.40;96.90;;;;;;5055056;28;20046;-84
2021/11/19 06:25:07;;;;;;;25.45;15.57;;;3.40;96.90;;;;;;5055590;28;20021;-84
2021/11/19 06:27:35;;;;;;;29.02;18.63;;;3.40;96.80;;;;;;5056187;28;20020;-83
2021/11/19 06:30:03;;;;;;;25.67;14.68;;;3.40;96.90;;;;;;5054547;28;20021;-84
2021/11/19 06:32:29;;;;;;;24.45;15.93;;;3.40;96.80;;;;;;5055144;28;20031;-84
2021/11/19 06:34:55;;;;;;;27.73;15.95;;;3.50;96.80;;;;;;5054261;28;20060;-83
2021/11/19 06:37:21;;;;;;;27.40;16.73;;;3.50;96.60;;;;;;5054508;28;20090;-83
2021/11/19 06:39:47;;;;;;;28.13;15.82;;;3.50;96.70;;;;;;5054785;28;20044;-83
2021/11/19 06:42:14;;;;;;;24.67;15.60;;;3.50;96.60;;;;;;5054664;28;20044;-84
2021/11/19 06:44:43;;;;;;;25.63;16.75;;;3.50;96.60;;;;;;5056394;28;20024;-84
2021/11/19 06:47:09;;;;;;;22.15;15.25;;;3.50;96.60;;;;;;5061387;28;20044;-82
2021/11/19 06:49:37;;;;;;;29.35;17.55;;;3.50;96.50;;;;;;5058345;28;20430;-84
2021/11/19 06:52:03;;;;;;;26.50;16.08;;;3.50;96.50;;;;;;5054509;28;20029;-82
2021/11/19 06:54:30;;;;;;;25.13;14.03;;;3.60;96.50;;;;;;5054361;28;20112;-85
2021/11/19 06:56:56;;;;;;;29.58;15.98;;;3.60;96.50;;;;;;5054140;28;20021;-84
2021/11/19 06:59:22;;;;;;;25.30;14.82;;;3.60;96.40;;;;;;5053683;28;20036;-84
2021/11/19 07:01:48;;;;;;;28.98;14.88;;;3.70;96.40;;;;;;5054137;28;20112;-83
2021/11/19 07:04:13;;;;;;;23.33;14.10;;;3.70;96.20;;;;;;5062096;28;20381;-83
2021/11/19 07:06:40;;;;;;;24.17;15.40;;;3.70;96.20;;;;;;5073744;28;20043;-83
2021/11/19 07:09:08;;;;;;;24.60;14.85;;;3.70;96.30;;;;;;5073014;28;20039;-83
2021/11/19 07:11:35;;;;;;;25.38;14.00;;;3.80;96.20;;;;;;5075111;28;20027;-84
2021/11/19 07:14:00;;;;;;;27.88;16.42;;;3.80;96.10;;;;;;5078767;28;20028;-85
2021/11/19 07:16:28;;;;;;;28.88;14.55;;;3.90;96.20;;;;;;5086382;28;20028;-82
2021/11/19 07:18:55;;;;;;;26.25;15.73;;;3.90;96.00;;;;;;5079887;28;20377;-85
2021/11/19 07:21:23;;;;;;;25.17;14.63;;;4.00;96.00;;;;;;5072126;28;20021;-88
2021/11/19 07:23:49;;;;;;;23.13;15.27;;;4.00;95.90;;;;;;5074617;28;20021;-84
2021/11/19 07:26:16;;;;;;;24.38;15.38;;;4.10;95.80;;;;;;5074252;28;20037;-83
2021/11/19 07:28:43;;;;;;;24.27;14.15;;;4.20;95.70;;;;;;5078936;28;20371;-87
2021/11/19 07:31:10;;;;;;;24.08;15.85;;;4.20;95.60;;;;;;5077143;28;20496;-86
2021/11/19 07:33:38;;;;;;;26.92;16.63;;;4.20;95.50;;;;;;5075335;28;20094;-87
2021/11/19 07:36:06;;;;;;;22.02;13.70;;;4.30;95.40;;;;;;5074252;28;20063;-87
2021/11/19 07:38:32;;;;;;;18.88;13.65;;;4.30;95.20;;;;;;5074356;28;20107;-88
2021/11/19 07:40:59;;;;;;;20.08;13.57;;;4.20;95.20;;;;;;5075492;28;20264;-88
2021/11/19 07:43:29;;;;;;;22.77;13.80;;;4.20;95.10;;;;;;5074503;28;20123;-88
2021/11/19 07:45:57;;;;;;;23.10;15.48;;;4.20;95.00;;;;;;5073207;28;20486;-86
2021/11/19 07:48:27;;;;;;;25.95;16.05;;;4.10;95.00;;;;;;5075392;28;20028;-88
2021/11/19 07:50:54;;;;;;;24.95;14.73;;;4.10;95.20;;;;;;5076354;28;20029;-88
2021/11/19 07:53:21;;;;;;;23.60;13.43;;;4.10;95.20;;;;;;5082521;28;20021;-87
2021/11/19 07:55:49;;;;;;;23.57;14.03;;;4.10;95.20;;;;;;5083727;28;20044;-88
2021/11/19 07:58:16;;;;;;;25.02;12.93;;;4.10;95.20;;;;;;5078850;28;20115;-87
2021/11/19 08:00:45;;;;;;;21.87;13.13;;;4.20;95.20;;;;;;5074665;28;20036;-87
2021/11/19 08:03:13;;;;;;;22.98;13.73;;;4.20;95.30;;;;;;5072381;28;20261;-87
2021/11/19 08:05:44;;;;;;;22.48;13.90;;;4.30;95.00;;;;;;5073235;28;20086;-88
2021/11/19 08:08:10;;;;;;;21.85;15.07;;;4.40;95.00;;;;;;5073543;28;20397;-89
2021/11/19 08:10:35;;;;;;;21.77;13.98;;;4.40;94.90;;;;;;5073584;28;20021;-89
2021/11/19 08:13:01;;;;;;;18.25;12.10;;;4.50;94.80;;;;;;5075395;28;20028;-88
2021/11/19 08:15:30;;;;;;;23.85;12.82;;;4.50;94.60;;;;;;5075113;28;20028;-90
2021/11/19 08:17:57;;;;;;;22.70;14.68;;;4.50;94.50;;;;;;5073586;28;20020;-86
2021/11/19 08:20:37;;;;;;;19.98;12.50;;;4.60;94.60;;;;;;5072942;28;20473;-89
2021/11/19 08:23:26;;;;;;;21.55;12.68;;;4.80;94.30;;;;;;5072839;28;20065;-88
2021/11/19 08:25:52;;;;;;;17.95;10.95;;;4.90;94.00;;;;;;5074749;28;20083;-88
2021/11/19 08:28:18;;;;;;;17.38;10.75;;;4.90;93.80;;;;;;5084498;28;20074;-90
2021/11/19 08:30:50;;;;;;;17.70;10.75;;;4.90;93.50;;;;;;5076212;28;20428;-87
2021/11/19 08:33:17;;;;;;;23.67;11.73;;;4.80;93.50;;;;;;5074290;28;20031;-89
2021/11/19 08:35:44;;;;;;;15.75;11.32;;;4.80;93.90;;;;;;5077321;28;20096;-89
2021/11/19 08:38:18;;;;;;;18.77;11.90;;;4.70;93.60;;;;;;5082183;28;20082;-88
2021/11/19 08:40:46;;;;;;;21.63;12.32;;;4.80;93.60;;;;;;5079512;28;20051;-88
2021/11/19 08:43:25;;;;;;;19.55;12.50;;;4.70;93.40;;;;;;5090476;28;20043;-88
2021/11/19 08:45:53;;;;;;;22.13;13.82;;;4.70;93.70;;;;;;5089356;28;20045;-87
2021/11/19 08:48:25;;;;;;;17.88;12.02;;;4.70;93.60;;;;;;5078382;28;20027;-88
2021/11/19 08:50:52;;;;;;;20.77;12.88;;;4.70;93.60;;;;;;5078380;28;20047;-88
2021/11/19 08:53:21;;;;;;;23.00;12.05;;;4.70;93.60;;;;;;5078112;28;20016;-88
2021/11/19 08:55:51;;;;;;;22.65;14.48;;;4.70;93.50;;;;;;5076661;28;20031;-86
2021/11/19 08:58:19;;;;;;;20.95;12.60;;;4.70;93.50;;;;;;5075306;28;20056;-87
2021/11/19 09:00:47;;;;;;;23.00;15.10;;;4.80;93.50;;;;;;5077659;28;20021;-88
2021/11/19 09:03:13;;;;;;;17.42;10.07;;;4.80;93.40;;;;;;5077407;28;20098;-87
2021/11/19 09:05:42;;;;;;;17.67;12.13;;;4.90;93.20;;;;;;5061937;28;20033;-86
2021/11/19 09:08:12;;;;;;;18.98;13.32;;;4.80;93.10;;;;;;5067999;28;20093;-86
2021/11/19 09:10:40;;;;;;;23.27;14.07;;;4.80;93.00;;;;;;5058582;28;20422;-87
2021/11/19 09:13:07;;;;;;;23.30;14.10;;;4.80;93.00;;;;;;5057775;28;20162;-88
2021/11/19 09:15:35;;;;;;;20.08;13.68;;;4.70;93.10;;;;;;5057062;28;20032;-87
2021/11/19 09:18:15;;;;;;;24.67;13.40;;;4.70;93.00;;;;;;5056747;28;20028;-88
2021/11/19 09:20:46;;;;;;;18.88;12.88;;;4.70;93.20;;;;;;5057161;28;20028;-87
2021/11/19 09:23:19;;;;;;;23.02;13.35;;;4.60;93.20;;;;;;5065191;28;20092;-85
2021/11/19 09:25:48;;;;;;;18.58;12.40;;;4.60;93.20;;;;;;5070120;28;20095;-89
2021/11/19 09:28:16;;;;;;;24.63;13.95;;;4.60;93.50;;;;;;5070068;28;20021;-88
2021/11/19 09:30:46;;;;;;;22.40;14.07;;;4.60;93.30;;;;;;5059059;28;20025;-89
2021/11/19 09:33:16;;;;;;;23.20;14.10;;;4.60;93.20;;;;;;5074624;28;20077;-87
2021/11/19 09:35:42;;;;;;;23.13;14.13;;;4.60;93.20;;;;;;5075169;28;20070;-86
2021/11/19 09:38:10;;;;;;;23.67;14.02;;;4.60;93.40;;;;;;5077075;28;20024;-86
2021/11/19 09:40:45;;;;;;;23.60;13.02;;;4.60;93.40;;;;;;5077030;28;20107;-88
2021/11/19 09:43:30;;;;;;;21.42;13.88;;;4.70;93.40;;;;;;5075970;28;20409;-88
2021/11/19 09:46:28;;;;;;;21.83;13.65;;;4.70;93.40;;;;;;5074662;28;20032;-88
2021/11/19 09:49:19;;;;;;;18.17;13.65;;;4.70;93.40;;;;;;5078035;28;20466;-87
2021/11/19 09:52:03;;;;;;;25.33;15.05;;;4.80;93.30;;;;;;5075685;28;20037;-85
2021/11/19 09:54:41;;;;;;;18.85;11.30;;;4.90;93.30;;;;;;5075151;28;20035;-85
2021/11/19 09:57:56;;;;;;;17.77;12.52;;;4.80;93.10;;;;;;5075958;28;20078;-89
2021/11/19 10:00:59;;;;;;;20.08;11.95;;;4.80;93.10;;;;;;4994290;28;20348;-87
2021/11/19 10:03:48;;;;;;;20.63;11.40;;;4.80;93.10;;;;;;4977990;28;20023;-87
2021/11/19 10:06:30;;;;;;;20.10;11.77;;;4.80;93.20;;;;;;4994672;28;20538;-89
2021/11/19 10:09:00;;;;;;;22.35;13.40;;;4.80;93.30;;;;;;4997917;28;20085;-89
2021/11/19 10:11:46;;;;;;;17.10;11.27;;;4.70;93.10;;;;;;4979511;28;20049;-87
2021/11/19 10:14:42;;;;;;;17.60;11.65;;;4.80;93.30;;;;;;4977561;28;20504;-87
2021/11/19 10:17:52;;;;;;;16.48;11.02;;;4.80;93.20;;;;;;4995273;28;20145;-88
2021/11/19 10:20:40;;;;;;;20.30;13.63;;;4.70;93.20;;;;;;4918180;29;20059;-88
2021/11/19 10:23:15;;;;;;;22.67;13.30;;;4.70;93.40;;;;;;4976940;28;20034;-89
2021/11/19 10:25:46;;;;;;;20.10;12.10;;;4.80;93.30;;;;;;4995665;28;20034;-86
2021/11/19 10:28:31;;;;;;;22.25;14.85;;;4.80;93.40;;;;;;4986143;28;20030;-88
2021/11/19 10:30:58;;;;;;;25.02;14.00;;;4.80;93.30;;;;;;4983874;28;20050;-88
2021/11/19 10:33:28;;;;;;;26.77;17.83;;;4.80;93.20;;;;;;5007821;28;20032;-85
2021/11/19 10:36:12;;;;;;;31.02;16.33;;;4.80;93.30;;;;;;5084888;28;20021;-87
2021/11/19 10:39:15;;;;;;;20.20;11.93;;;4.80;93.20;;;;;;5090583;28;20047;-89
2021/11/19 10:42:10;;;;;;;18.02;11.52;;;4.80;93.10;;;;;;5082093;28;20362;-87
2021/11/19 10:44:56;;;;;;;19.17;12.95;;;4.80;93.20;;;;;;5077378;28;20101;-91
2021/11/19 10:47:37;;;;;;;20.92;12.63;;;4.90;93.20;;;;;;5076345;28;20039;-87
2021/11/19 10:50:09;;;;;;;19.98;12.73;;;4.80;93.20;;;;;;5084384;28;20019;-86
2021/11/19 10:52:56;;;;;;;19.48;12.65;;;4.70;93.30;;;;;;5075801;28;20027;-89
2021/11/19 10:55:22;;;;;;;;;;;4.70;93.60;;;;;;5077617;28;20024;-87
2021/11/19 10:58:09;;;;;;;15.77;9.02;;;4.60;93.70;;;;;;5077203;28;19914;-88
2021/11/19 11:00:56;;;;;;;19.13;11.60;;;4.40;94.00;;;;;;5074536;28;20060;-86
2021/11/19 11:03:25;;;;;;;20.83;12.90;;;4.40;94.20;;;;;;5079033;28;20032;-88
2021/11/19 11:06:06;;;;;;;20.75;11.10;;;4.40;94.30;;;;;;5075618;28;20062;-88
2021/11/19 11:08:38;;;;;;;16.25;9.77;;;4.40;94.30;;;;;;5075914;28;20016;-88
2021/11/19 11:11:12;;;;;;;23.65;11.75;;;4.40;94.40;;;;;;5072608;28;20064;-88
2021/11/19 11:13:56;;;;;;;21.15;11.90;;;4.40;94.40;;;;;;5075082;28;20036;-87
2021/11/19 11:16:25;;;;;;;20.58;12.38;;;4.40;94.40;;;;;;5074440;28;20028;-87
2021/11/19 11:18:56;;;;;;;18.95;10.70;;;4.40;94.40;;;;;;5074742;28;20029;-87
2021/11/19 11:21:26;;;;;;;17.45;12.13;;;4.40;94.30;;;;;;5074842;28;20021;-87
2021/11/19 11:24:07;;;;;;;19.20;11.70;;;4.40;94.30;;;;;;5076629;28;20446;-87
2021/11/19 11:26:49;;;;;;;19.92;13.30;;;4.40;94.40;;;;;;5077460;28;20028;-86
2021/11/19 11:29:17;;;;;;;23.73;13.20;;;4.30;94.40;;;;;;5079071;28;20027;-87
2021/11/19 11:32:06;;;;;;;23.60;11.27;;;4.30;94.30;;;;;;5075975;28;20437;-87
2021/11/19 11:34:44;;;;;;;17.67;10.90;;;4.30;94.30;;;;;;5084933;28;20028;-88
2021/11/19 11:37:13;;;;;;;20.83;11.80;;;4.30;94.50;;;;;;5089494;28;20048;-86
2021/11/19 11:40:12;;;;;;;21.90;13.98;;;4.40;94.50;;;;;;5081010;28;20025;-89
2021/11/19 11:42:43;;;;;;;19.52;11.65;;;4.40;94.50;;;;;;5078575;28;20056;-88
2021/11/19 11:45:47;;;;;;;20.88;12.05;;;4.40;94.30;;;;;;5077352;28;20020;-89
2021/11/19 11:48:38;;;;;;;22.15;12.82;;;4.40;94.30;;;;;;5073836;28;20078;-90
2021/11/19 11:51:20;;;;;;;22.95;11.63;;;4.40;94.20;;;;;;5076559;28;20028;-87
2021/11/19 11:54:11;;;;;;;19.38;10.73;;;4.40;94.20;;;;;;5077919;28;20051;-88
2021/11/19 11:56:42;;;;;;;13.88;8.52;;;4.40;94.10;;;;;;5078087;28;20056;-87
2021/11/19 11:59:26;;;;;;;17.45;11.63;;;4.40;94.00;;;;;;5081375;28;20028;-86
2021/11/19 12:02:03;;;;;;;22.80;13.63;;;4.40;94.10;;;;;;5080758;28;20074;-87
2021/11/19 12:04:47;;;;;;;21.85;12.48;;;4.40;94.00;;;;;;5074230;28;20025;-90
2021/11/19 12:07:48;;;;;;;16.08;9.82;;;4.50;93.90;;;;;;5074547;28;20033;-88
2021/11/19 12:10:41;;;;;;;18.20;11.18;;;4.50;93.70;;;;;;5073911;28;20390;-88
2021/11/19 12:13:46;;;;;;;20.95;10.68;;;4.50;93.70;;;;;;5075307;28;20020;-89
2021/11/19 12:16:30;;;;;;;14.57;9.45;;;4.50;93.70;;;;;;5069172;28;20135;-88
2021/11/19 12:19:14;;;;;;;17.38;10.38;;;4.40;93.60;;;;;;5091111;28;20031;-89
2021/11/19 12:21:55;;;;;;;19.70;12.23;;;4.40;93.60;;;;;;5084767;28;20021;-85
2021/11/19 12:24:56;;;;;;;17.92;10.75;;;4.40;93.80;;;;;;5078147;28;20016;-87
2021/11/19 12:27:56;;;;;;;20.05;11.18;;;4.40;93.80;;;;;;5078808;28;20052;-88
2021/11/19 12:30:34;;;;;;;22.65;11.43;;;4.50;93.70;;;;;;5057810;28;20067;-89
2021/11/19 12:33:22;;;;;;;20.13;11.52;;;4.40;93.60;;;;;;5079023;28;20017;-85
2021/11/19 12:35:59;;;;;;;19.25;11.73;;;4.40;93.60;;;;;;5079392;28;20032;-89
2021/11/19 12:38:33;;;;;;;20.67;11.05;;;4.40;93.60;;;;;;5065089;28;20029;-87
2021/11/19 12:41:13;;;;;;;15.25;10.70;;;4.40;93.60;;;;;;5057587;28;20478;-88
2021/11/19 12:44:12;;;;;;;15.05;10.82;;;4.40;93.60;;;;;;5056402;28;20041;-88
2021/11/19 12:47:08;;;;;;;15.65;9.73;;;4.40;93.50;;;;;;5058647;28;20064;-88
2021/11/19 12:50:12;;;;;;;17.30;10.77;;;4.40;93.40;;;;;;5060791;28;20024;-89
2021/11/19 12:53:08;;;;;;;18.10;8.82;;;4.40;93.40;;;;;;5058162;28;20502;-86
2021/11/19 12:56:13;;;;;;;16.88;10.90;;;4.40;93.40;;;;;;5059090;28;20021;-86
2021/11/19 12:58:47;;;;;;;17.23;10.75;;;4.40;93.50;;;;;;5057008;28;20027;-89
2021/11/19 13:01:51;;;;;;;16.67;9.48;;;4.30;93.50;;;;;;5057085;28;20105;-88
2021/11/19 13:04:29;;;;;;;21.05;11.30;;;4.30;93.50;;;;;;5011109;28;20045;-89
2021/11/19 13:07:15;;;;;;;15.13;8.70;;;4.20;93.70;;;;;;5079159;28;20032;-88
2021/11/19 13:09:50;;;;;;;17.17;11.38;;;4.20;93.90;;;;;;5061190;28;20036;-88
2021/11/19 13:13:01;;;;;;;17.05;11.00;;;4.10;94.00;;;;;;5076149;28;20025;-89